sensor_id;sensor_type;location;lat;lon;timestamp;temperature;humidity
7028;DHT22;3555;53.248;10.336;2022-09-11T00:02:14;16.90;99.90
7028;DHT22;3555;53.248;10.336;2022-09-11T00:04:42;17.00;99.90
7028;DHT22;3555;53.248;10.336;2022-09-11T00:07:08;17.00;99.90
7028;DHT22;3555;53.248;10.336;2022-09-11T00:09:37;17.10;99.90
7028;DHT22;3555;53.248;10.336;2022-09-11T00:12:04;17.00;99.90
7028;DHT22;3555;53.248;10.336;2022-09-11T00:14:31;17.10;99.90
7028;DHT22;3555;53.248;10.336;2022-09-11T00:16:58;17.10;99.90
7028;DHT22;3555;53.248;10.336;2022-09-11T00:19:25;17.20;99.90
7028;DHT22;3555;53.248;10.336;2022-09-11T00:21:53;17.20;99.90
7028;DHT22;3555;53.248;10.336;2022-09-11T00:24:21;17.30;99.90
7028;DHT22;3555;53.248;10.336;2022-09-11T00:26:49;17.30;99.90
7028;DHT22;3555;53.248;10.336;2022-09-11T00:29:15;17.30;99.90
7028;DHT22;3555;53.248;10.336;2022-09-11T00:31:42;17.40;99.90
7028;DHT22;3555;53.248;10.336;2022-09-11T00:34:09;17.40;99.90
7028;DHT22;3555;53.248;10.336;2022-09-11T00:36:37;17.40;99.90
7028;DHT22;3555;53.248;10.336;2022-09-11T00:39:05;17.40;99.90
7028;DHT22;3555;53.248;10.336;2022-09-11T00:41:34;17.40;99.90
7028;DHT22;3555;53.248;10.336;2022-09-11T00:44:04;17.30;99.90
7028;DHT22;3555;53.248;10.336;2022-09-11T00:46:35;17.40;99.90
7028;DHT22;3555;53.248;10.336;2022-09-11T00:49:11;17.40;99.90
7028;DHT22;3555;53.248;10.336;2022-09-11T00:51:40;17.50;99.90
7028;DHT22;3555;53.248;10.336;2022-09-11T00:54:09;17.50;99.90
7028;DHT22;3555;53.248;10.336;2022-09-11T00:56:37;17.50;99.90
7028;DHT22;3555;53.248;10.336;2022-09-11T00:59:07;17.50;99.90
7028;DHT22;3555;53.248;10.336;2022-09-11T01:01:35;17.50;99.90
7028;DHT22;3555;53.248;10.336;2022-09-11T01:04:03;17.50;99.90
7028;DHT22;3555;53.248;10.336;2022-09-11T01:06:31;17.50;99.90
7028;DHT22;3555;53.248;10.336;2022-09-11T01:08:58;17.40;99.90
7028;DHT22;3555;53.248;10.336;2022-09-11T01:11:34;17.40;99.90
7028;DHT22;3555;53.248;10.336;2022-09-11T01:14:11;17.40;99.90
7028;DHT22;3555;53.248;10.336;2022-09-11T01:16:44;17.50;99.90
7028;DHT22;3555;53.248;10.336;2022-09-11T01:19:29;17.40;99.90
7028;DHT22;3555;53.248;10.336;2022-09-11T01:22:19;17.50;99.90
7028;DHT22;3555;53.248;10.336;2022-09-11T01:24:55;17.40;99.90
7028;DHT22;3555;53.248;10.336;2022-09-11T01:27:48;17.40;99.90
7028;DHT22;3555;53.248;10.336;2022-09-11T01:30:17;17.40;99.90
7028;DHT22;3555;53.248;10.336;2022-09-11T01:32:59;17.40;99.90
7028;DHT22;3555;53.248;10.336;2022-09-11T01:35:38;17.30;99.90
7028;DHT22;3555;53.248;10.336;2022-09-11T01:38:11;17.40;99.90
7028;DHT22;3555;53.248;10.336;2022-09-11T01:40:43;17.40;99.90
7028;DHT22;3555;53.248;10.336;2022-09-11T01:43:17;17.40;99.90
7028;DHT22;3555;53.248;10.336;2022-09-11T01:45:48;17.40;99.90
7028;DHT22;3555;53.248;10.336;2022-09-11T01:48:20;17.40;99.90
7028;DHT22;3555;53.248;10.336;2022-09-11T01:50:50;17.50;99.90
7028;DHT22;3555;53.248;10.336;2022-09-11T01:53:21;17.50;99.90
7028;DHT22;3555;53.248;10.336;2022-09-11T01:55:52;17.40;99.90
7028;DHT22;3555;53.248;10.336;2022-09-11T01:58:25;17.50;99.90
7028;DHT22;3555;53.248;10.336;2022-09-11T02:00:55;17.40;99.90
7028;DHT22;3555;53.248;10.336;2022-09-11T02:03:27;17.50;99.90
7028;DHT22;3555;53.248;10.336;2022-09-11T02:05:58;17.50;99.90
7028;DHT22;3555;53.248;10.336;2022-09-11T02:08:28;17.50;99.90
7028;DHT22;3555;53.248;10.336;2022-09-11T02:11:01;17.50;99.90
7028;DHT22;3555;53.248;10.336;2022-09-11T02:13:34;17.50;99.90
7028;DHT22;3555;53.248;10.336;2022-09-11T02:16:06;17.40;99.90
7028;DHT22;3555;53.248;10.336;2022-09-11T02:18:40;17.50;99.90
7028;DHT22;3555;53.248;10.336;2022-09-11T02:21:09;17.50;99.90
7028;DHT22;3555;53.248;10.336;2022-09-11T02:23:35;17.50;99.90
7028;DHT22;3555;53.248;10.336;2022-09-11T02:26:03;17.40;99.90
7028;DHT22;3555;53.248;10.336;2022-09-11T02:28:32;17.50;99.90
7028;DHT22;3555;53.248;10.336;2022-09-11T02:30:59;17.50;99.90
7028;DHT22;3555;53.248;10.336;2022-09-11T02:33:29;17.40;99.90
7028;DHT22;3555;53.248;10.336;2022-09-11T02:36:07;17.50;99.90
7028;DHT22;3555;53.248;10.336;2022-09-11T02:38:41;17.50;99.90
7028;DHT22;3555;53.248;10.336;2022-09-11T02:41:15;17.50;99.90
7028;DHT22;3555;53.248;10.336;2022-09-11T02:43:55;17.50;99.90
7028;DHT22;3555;53.248;10.336;2022-09-11T02:46:32;17.40;99.90
7028;DHT22;3555;53.248;10.336;2022-09-11T02:49:06;17.40;99.90
7028;DHT22;3555;53.248;10.336;2022-09-11T02:51:38;17.40;99.90
7028;DHT22;3555;53.248;10.336;2022-09-11T02:54:13;17.40;99.90
7028;DHT22;3555;53.248;10.336;2022-09-11T02:56:46;17.40;99.90
7028;DHT22;3555;53.248;10.336;2022-09-11T02:59:18;17.30;99.90
7028;DHT22;3555;53.248;10.336;2022-09-11T03:01:47;17.10;99.90
7028;DHT22;3555;53.248;10.336;2022-09-11T03:04:14;17.20;99.90
7028;DHT22;3555;53.248;10.336;2022-09-11T03:06:43;17.20;99.90
7028;DHT22;3555;53.248;10.336;2022-09-11T03:09:13;17.20;99.90
7028;DHT22;3555;53.248;10.336;2022-09-11T03:11:40;17.20;99.90
7028;DHT22;3555;53.248;10.336;2022-09-11T03:14:06;17.30;99.90
7028;DHT22;3555;53.248;10.336;2022-09-11T03:16:34;17.30;99.90
7028;DHT22;3555;53.248;10.336;2022-09-11T03:19:02;17.30;99.90
7028;DHT22;3555;53.248;10.336;2022-09-11T03:21:29;17.20;99.90
7028;DHT22;3555;53.248;10.336;2022-09-11T03:23:56;17.00;99.90
7028;DHT22;3555;53.248;10.336;2022-09-11T03:26:22;16.90;99.90
7028;DHT22;3555;53.248;10.336;2022-09-11T03:28:49;17.00;99.90
7028;DHT22;3555;53.248;10.336;2022-09-11T03:31:18;17.00;99.90
7028;DHT22;3555;53.248;10.336;2022-09-11T03:33:46;17.00;99.90
7028;DHT22;3555;53.248;10.336;2022-09-11T03:36:13;17.10;99.90
7028;DHT22;3555;53.248;10.336;2022-09-11T03:38:39;17.20;99.90
7028;DHT22;3555;53.248;10.336;2022-09-11T03:41:06;17.20;99.90
7028;DHT22;3555;53.248;10.336;2022-09-11T03:43:34;17.30;99.90
7028;DHT22;3555;53.248;10.336;2022-09-11T03:46:00;17.30;99.90
7028;DHT22;3555;53.248;10.336;2022-09-11T03:48:27;17.30;99.90
7028;DHT22;3555;53.248;10.336;2022-09-11T03:50:55;17.30;99.90
7028;DHT22;3555;53.248;10.336;2022-09-11T03:53:23;17.30;99.90
7028;DHT22;3555;53.248;10.336;2022-09-11T03:55:50;17.30;99.90
7028;DHT22;3555;53.248;10.336;2022-09-11T03:58:17;17.30;99.90
7028;DHT22;3555;53.248;10.336;2022-09-11T04:00:44;17.30;99.90
7028;DHT22;3555;53.248;10.336;2022-09-11T04:03:13;17.30;99.90
7028;DHT22;3555;53.248;10.336;2022-09-11T04:05:41;17.30;99.90
7028;DHT22;3555;53.248;10.336;2022-09-11T04:08:10;17.40;99.90
7028;DHT22;3555;53.248;10.336;2022-09-11T04:10:37;17.30;99.90
7028;DHT22;3555;53.248;10.336;2022-09-11T04:13:05;17.30;99.90
7028;DHT22;3555;53.248;10.336;2022-09-11T04:15:32;17.30;99.90
7028;DHT22;3555;53.248;10.336;2022-09-11T04:17:58;17.30;99.90
7028;DHT22;3555;53.248;10.336;2022-09-11T04:20:25;17.30;99.90
7028;DHT22;3555;53.248;10.336;2022-09-11T04:22:52;17.30;99.90
7028;DHT22;3555;53.248;10.336;2022-09-11T04:25:21;17.30;99.90
7028;DHT22;3555;53.248;10.336;2022-09-11T04:27:48;17.30;99.90
7028;DHT22;3555;53.248;10.336;2022-09-11T04:30:15;17.30;99.90
7028;DHT22;3555;53.248;10.336;2022-09-11T04:32:42;17.30;99.90
7028;DHT22;3555;53.248;10.336;2022-09-11T04:35:10;17.30;99.90
7028;DHT22;3555;53.248;10.336;2022-09-11T04:37:37;17.30;99.90
7028;DHT22;3555;53.248;10.336;2022-09-11T04:40:06;17.30;99.90
7028;DHT22;3555;53.248;10.336;2022-09-11T04:42:35;17.30;99.90
7028;DHT22;3555;53.248;10.336;2022-09-11T04:45:03;17.30;99.90
7028;DHT22;3555;53.248;10.336;2022-09-11T04:47:30;17.30;99.90
7028;DHT22;3555;53.248;10.336;2022-09-11T04:49:56;17.30;99.90
7028;DHT22;3555;53.248;10.336;2022-09-11T04:52:23;17.40;99.90
7028;DHT22;3555;53.248;10.336;2022-09-11T04:54:50;17.30;99.90
7028;DHT22;3555;53.248;10.336;2022-09-11T04:57:17;17.30;99.90
7028;DHT22;3555;53.248;10.336;2022-09-11T04:59:45;17.30;99.90
7028;DHT22;3555;53.248;10.336;2022-09-11T05:02:13;17.30;99.90
7028;DHT22;3555;53.248;10.336;2022-09-11T05:04:40;17.30;99.90
7028;DHT22;3555;53.248;10.336;2022-09-11T05:07:07;17.30;99.90
7028;DHT22;3555;53.248;10.336;2022-09-11T05:09:33;17.30;99.90
7028;DHT22;3555;53.248;10.336;2022-09-11T05:12:01;17.30;99.90
7028;DHT22;3555;53.248;10.336;2022-09-11T05:14:27;17.30;99.90
7028;DHT22;3555;53.248;10.336;2022-09-11T05:16:55;17.20;99.90
7028;DHT22;3555;53.248;10.336;2022-09-11T05:19:22;17.20;99.90
7028;DHT22;3555;53.248;10.336;2022-09-11T05:21:50;17.00;99.90
7028;DHT22;3555;53.248;10.336;2022-09-11T05:24:17;17.00;99.90
7028;DHT22;3555;53.248;10.336;2022-09-11T05:26:44;17.00;99.90
7028;DHT22;3555;53.248;10.336;2022-09-11T05:29:12;17.00;99.90
7028;DHT22;3555;53.248;10.336;2022-09-11T05:31:39;17.00;99.90
7028;DHT22;3555;53.248;10.336;2022-09-11T05:34:07;17.00;99.90
7028;DHT22;3555;53.248;10.336;2022-09-11T05:36:34;16.90;99.90
7028;DHT22;3555;53.248;10.336;2022-09-11T05:39:02;16.90;99.90
7028;DHT22;3555;53.248;10.336;2022-09-11T05:41:29;16.80;99.90
7028;DHT22;3555;53.248;10.336;2022-09-11T05:43:57;16.90;99.90
7028;DHT22;3555;53.248;10.336;2022-09-11T05:46:23;16.90;99.90
7028;DHT22;3555;53.248;10.336;2022-09-11T05:48:51;16.90;99.90
7028;DHT22;3555;53.248;10.336;2022-09-11T05:51:20;16.90;99.90
7028;DHT22;3555;53.248;10.336;2022-09-11T05:53:47;16.80;99.90
7028;DHT22;3555;53.248;10.336;2022-09-11T05:56:20;16.80;99.90
7028;DHT22;3555;53.248;10.336;2022-09-11T05:58:47;16.80;99.90
7028;DHT22;3555;53.248;10.336;2022-09-11T06:01:17;16.80;99.90
7028;DHT22;3555;53.248;10.336;2022-09-11T06:03:45;16.80;99.90
7028;DHT22;3555;53.248;10.336;2022-09-11T06:06:15;16.70;99.90
7028;DHT22;3555;53.248;10.336;2022-09-11T06:08:44;16.70;99.90
7028;DHT22;3555;53.248;10.336;2022-09-11T06:11:13;16.70;99.90
7028;DHT22;3555;53.248;10.336;2022-09-11T06:13:41;16.70;99.90
7028;DHT22;3555;53.248;10.336;2022-09-11T06:16:09;16.70;99.90
7028;DHT22;3555;53.248;10.336;2022-09-11T06:18:36;16.70;99.90
7028;DHT22;3555;53.248;10.336;2022-09-11T06:21:05;16.80;99.90
7028;DHT22;3555;53.248;10.336;2022-09-11T06:23:32;16.80;99.90
7028;DHT22;3555;53.248;10.336;2022-09-11T06:26:05;16.80;99.90
7028;DHT22;3555;53.248;10.336;2022-09-11T06:28:33;16.90;99.90
7028;DHT22;3555;53.248;10.336;2022-09-11T06:31:01;16.90;99.90
7028;DHT22;3555;53.248;10.336;2022-09-11T06:33:30;17.00;99.90
7028;DHT22;3555;53.248;10.336;2022-09-11T06:35:59;16.90;99.90
7028;DHT22;3555;53.248;10.336;2022-09-11T06:38:26;16.90;99.90
7028;DHT22;3555;53.248;10.336;2022-09-11T06:40:54;16.90;99.90
7028;DHT22;3555;53.248;10.336;2022-09-11T06:43:22;16.90;99.90
7028;DHT22;3555;53.248;10.336;2022-09-11T06:45:49;16.90;99.90
7028;DHT22;3555;53.248;10.336;2022-09-11T06:48:17;17.00;99.90
7028;DHT22;3555;53.248;10.336;2022-09-11T06:50:44;17.00;99.90
7028;DHT22;3555;53.248;10.336;2022-09-11T06:53:12;17.00;99.90
7028;DHT22;3555;53.248;10.336;2022-09-11T06:55:39;17.10;99.90
7028;DHT22;3555;53.248;10.336;2022-09-11T06:58:07;17.10;99.90
7028;DHT22;3555;53.248;10.336;2022-09-11T07:00:35;17.10;99.90
7028;DHT22;3555;53.248;10.336;2022-09-11T07:03:02;17.20;99.90
7028;DHT22;3555;53.248;10.336;2022-09-11T07:05:29;17.20;99.90
7028;DHT22;3555;53.248;10.336;2022-09-11T07:07:56;17.20;99.90
7028;DHT22;3555;53.248;10.336;2022-09-11T07:10:23;17.30;99.90
7028;DHT22;3555;53.248;10.336;2022-09-11T07:12:51;17.30;99.90
7028;DHT22;3555;53.248;10.336;2022-09-11T07:15:19;17.30;99.90
7028;DHT22;3555;53.248;10.336;2022-09-11T07:17:47;17.30;99.90
7028;DHT22;3555;53.248;10.336;2022-09-11T07:20:14;17.30;99.90
7028;DHT22;3555;53.248;10.336;2022-09-11T07:22:42;17.30;99.90
7028;DHT22;3555;53.248;10.336;2022-09-11T07:25:09;17.30;99.90
7028;DHT22;3555;53.248;10.336;2022-09-11T07:27:36;17.30;99.90
7028;DHT22;3555;53.248;10.336;2022-09-11T07:30:04;17.30;99.90
7028;DHT22;3555;53.248;10.336;2022-09-11T07:32:31;17.20;99.90
7028;DHT22;3555;53.248;10.336;2022-09-11T07:34:59;17.20;99.90
7028;DHT22;3555;53.248;10.336;2022-09-11T07:37:27;17.20;99.90
7028;DHT22;3555;53.248;10.336;2022-09-11T07:39:53;17.20;99.90
7028;DHT22;3555;53.248;10.336;2022-09-11T07:42:20;17.20;99.90
7028;DHT22;3555;53.248;10.336;2022-09-11T07:44:47;17.30;99.90
7028;DHT22;3555;53.248;10.336;2022-09-11T07:47:15;17.30;99.90
7028;DHT22;3555;53.248;10.336;2022-09-11T07:49:42;17.20;99.90
7028;DHT22;3555;53.248;10.336;2022-09-11T07:52:14;17.20;99.90
7028;DHT22;3555;53.248;10.336;2022-09-11T07:54:42;17.30;99.90
7028;DHT22;3555;53.248;10.336;2022-09-11T07:57:09;17.20;99.90
7028;DHT22;3555;53.248;10.336;2022-09-11T07:59:36;17.20;99.90
7028;DHT22;3555;53.248;10.336;2022-09-11T08:02:04;17.30;99.90
7028;DHT22;3555;53.248;10.336;2022-09-11T08:04:32;17.30;99.90
7028;DHT22;3555;53.248;10.336;2022-09-11T08:06:59;17.30;99.90
7028;DHT22;3555;53.248;10.336;2022-09-11T08:09:27;17.40;99.90
7028;DHT22;3555;53.248;10.336;2022-09-11T08:11:54;17.50;99.90
7028;DHT22;3555;53.248;10.336;2022-09-11T08:14:23;17.50;99.90
7028;DHT22;3555;53.248;10.336;2022-09-11T08:16:50;17.60;99.90
7028;DHT22;3555;53.248;10.336;2022-09-11T08:19:21;17.60;99.90
7028;DHT22;3555;53.248;10.336;2022-09-11T08:21:48;17.70;99.90
7028;DHT22;3555;53.248;10.336;2022-09-11T08:24:16;17.50;99.90
7028;DHT22;3555;53.248;10.336;2022-09-11T08:26:46;17.60;99.90
7028;DHT22;3555;53.248;10.336;2022-09-11T08:29:13;17.70;99.90
7028;DHT22;3555;53.248;10.336;2022-09-11T08:31:39;17.80;99.90
7028;DHT22;3555;53.248;10.336;2022-09-11T08:34:06;17.90;99.90
7028;DHT22;3555;53.248;10.336;2022-09-11T08:36:33;17.90;99.90
7028;DHT22;3555;53.248;10.336;2022-09-11T08:38:59;18.00;99.90
7028;DHT22;3555;53.248;10.336;2022-09-11T08:41:41;18.00;99.90
7028;DHT22;3555;53.248;10.336;2022-09-11T08:44:20;18.10;99.90
7028;DHT22;3555;53.248;10.336;2022-09-11T08:46:51;18.10;99.90
7028;DHT22;3555;53.248;10.336;2022-09-11T08:49:23;18.20;99.90
7028;DHT22;3555;53.248;10.336;2022-09-11T08:51:51;18.20;99.90
7028;DHT22;3555;53.248;10.336;2022-09-11T08:54:24;18.20;99.90
7028;DHT22;3555;53.248;10.336;2022-09-11T08:56:56;18.30;99.90
7028;DHT22;3555;53.248;10.336;2022-09-11T08:59:37;18.30;99.90
7028;DHT22;3555;53.248;10.336;2022-09-11T09:02:35;18.40;99.90
7028;DHT22;3555;53.248;10.336;2022-09-11T09:05:15;18.30;99.90
7028;DHT22;3555;53.248;10.336;2022-09-11T09:07:54;18.40;99.90
7028;DHT22;3555;53.248;10.336;2022-09-11T09:10:38;18.50;99.90
7028;DHT22;3555;53.248;10.336;2022-09-11T09:13:17;18.50;99.90
7028;DHT22;3555;53.248;10.336;2022-09-11T09:15:55;18.60;99.90
7028;DHT22;3555;53.248;10.336;2022-09-11T09:18:30;18.60;99.90
7028;DHT22;3555;53.248;10.336;2022-09-11T09:21:01;18.70;99.90
7028;DHT22;3555;53.248;10.336;2022-09-11T09:23:34;18.70;99.90
7028;DHT22;3555;53.248;10.336;2022-09-11T09:26:10;18.90;99.90
7028;DHT22;3555;53.248;10.336;2022-09-11T09:28:45;18.80;99.90
7028;DHT22;3555;53.248;10.336;2022-09-11T09:31:18;18.90;99.90
7028;DHT22;3555;53.248;10.336;2022-09-11T09:33:49;19.00;99.90
7028;DHT22;3555;53.248;10.336;2022-09-11T09:36:20;19.20;99.90
7028;DHT22;3555;53.248;10.336;2022-09-11T09:38:47;19.10;99.90
7028;DHT22;3555;53.248;10.336;2022-09-11T09:41:41;19.20;99.90
7028;DHT22;3555;53.248;10.336;2022-09-11T09:44:20;19.20;99.90
7028;DHT22;3555;53.248;10.336;2022-09-11T09:46:51;19.20;99.90
7028;DHT22;3555;53.248;10.336;2022-09-11T09:49:23;19.50;99.90
7028;DHT22;3555;53.248;10.336;2022-09-11T09:51:53;19.80;99.90
7028;DHT22;3555;53.248;10.336;2022-09-11T09:54:23;20.20;99.90
7028;DHT22;3555;53.248;10.336;2022-09-11T09:56:56;20.40;99.90
7028;DHT22;3555;53.248;10.336;2022-09-11T09:59:29;20.30;99.90
7028;DHT22;3555;53.248;10.336;2022-09-11T10:01:59;20.40;99.90
7028;DHT22;3555;53.248;10.336;2022-09-11T10:04:26;20.50;99.90
7028;DHT22;3555;53.248;10.336;2022-09-11T10:07:05;20.70;99.90
7028;DHT22;3555;53.248;10.336;2022-09-11T10:09:32;20.80;99.90
7028;DHT22;3555;53.248;10.336;2022-09-11T10:12:01;21.00;99.90
7028;DHT22;3555;53.248;10.336;2022-09-11T10:14:30;21.10;99.90
7028;DHT22;3555;53.248;10.336;2022-09-11T10:17:00;21.20;99.90
7028;DHT22;3555;53.248;10.336;2022-09-11T10:19:37;21.30;99.90
7028;DHT22;3555;53.248;10.336;2022-09-11T10:22:24;21.20;99.90
7028;DHT22;3555;53.248;10.336;2022-09-11T10:24:59;21.30;99.90
7028;DHT22;3555;53.248;10.336;2022-09-11T10:27:27;21.30;99.90
7028;DHT22;3555;53.248;10.336;2022-09-11T10:29:54;21.40;99.90
7028;DHT22;3555;53.248;10.336;2022-09-11T10:32:23;21.50;99.90
7028;DHT22;3555;53.248;10.336;2022-09-11T10:34:51;21.50;99.90
7028;DHT22;3555;53.248;10.336;2022-09-11T10:37:23;21.80;72.30
7028;DHT22;3555;53.248;10.336;2022-09-11T10:39:51;21.90;33.00
7028;DHT22;3555;53.248;10.336;2022-09-11T10:42:20;21.90;11.10
7028;DHT22;3555;53.248;10.336;2022-09-11T10:44:49;21.90;26.00
7028;DHT22;3555;53.248;10.336;2022-09-11T10:47:23;21.90;36.10
7028;DHT22;3555;53.248;10.336;2022-09-11T10:50:11;21.90;21.50
7028;DHT22;3555;53.248;10.336;2022-09-11T10:52:47;21.90;89.20
7028;DHT22;3555;53.248;10.336;2022-09-11T10:55:14;21.90;99.90
7028;DHT22;3555;53.248;10.336;2022-09-11T10:57:43;22.20;28.90
7028;DHT22;3555;53.248;10.336;2022-09-11T11:00:14;22.30;71.20
7028;DHT22;3555;53.248;10.336;2022-09-11T11:02:45;22.70;1.00
7028;DHT22;3555;53.248;10.336;2022-09-11T11:05:19;22.80;1.00
7028;DHT22;3555;53.248;10.336;2022-09-11T11:10:48;22.90;1.00
7028;DHT22;3555;53.248;10.336;2022-09-11T11:13:31;23.00;99.90
7028;DHT22;3555;53.248;10.336;2022-09-11T11:16:10;22.80;1.00
7028;DHT22;3555;53.248;10.336;2022-09-11T11:19:06;22.80;1.00
7028;DHT22;3555;53.248;10.336;2022-09-11T11:21:47;22.80;1.00
7028;DHT22;3555;53.248;10.336;2022-09-11T11:24:28;22.90;1.00
7028;DHT22;3555;53.248;10.336;2022-09-11T11:27:05;23.20;1.00
7028;DHT22;3555;53.248;10.336;2022-09-11T11:29:54;23.40;99.90
7028;DHT22;3555;53.248;10.336;2022-09-11T11:32:42;23.40;66.10
7028;DHT22;3555;53.248;10.336;2022-09-11T11:35:20;23.50;1.00
7028;DHT22;3555;53.248;10.336;2022-09-11T11:37:48;23.50;99.90
7028;DHT22;3555;53.248;10.336;2022-09-11T11:40:21;23.50;2.10
7028;DHT22;3555;53.248;10.336;2022-09-11T11:42:53;23.60;1.00
7028;DHT22;3555;53.248;10.336;2022-09-11T11:45:25;23.70;1.00
7028;DHT22;3555;53.248;10.336;2022-09-11T11:47:58;23.70;1.00
7028;DHT22;3555;53.248;10.336;2022-09-11T11:50:32;24.00;1.00
7028;DHT22;3555;53.248;10.336;2022-09-11T11:53:04;24.00;1.00
7028;DHT22;3555;53.248;10.336;2022-09-11T11:55:42;24.20;1.00
7028;DHT22;3555;53.248;10.336;2022-09-11T11:58:17;24.60;1.00
7028;DHT22;3555;53.248;10.336;2022-09-11T12:00:50;24.50;1.00
7028;DHT22;3555;53.248;10.336;2022-09-11T12:03:25;24.80;1.00
7028;DHT22;3555;53.248;10.336;2022-09-11T12:05:54;24.80;64.10
7028;DHT22;3555;53.248;10.336;2022-09-11T12:08:21;24.80;99.90
7028;DHT22;3555;53.248;10.336;2022-09-11T12:10:53;25.00;1.00
7028;DHT22;3555;53.248;10.336;2022-09-11T12:13:24;24.90;99.90
7028;DHT22;3555;53.248;10.336;2022-09-11T12:16:04;25.10;99.90
7028;DHT22;3555;53.248;10.336;2022-09-11T12:18:31;25.40;1.00
7028;DHT22;3555;53.248;10.336;2022-09-11T12:21:34;25.70;1.00
7028;DHT22;3555;53.248;10.336;2022-09-11T12:24:13;25.90;1.00
7028;DHT22;3555;53.248;10.336;2022-09-11T12:26:42;26.20;1.00
7028;DHT22;3555;53.248;10.336;2022-09-11T12:35:18;25.90;1.00
7028;DHT22;3555;53.248;10.336;2022-09-11T12:37:54;25.90;1.00
7028;DHT22;3555;53.248;10.336;2022-09-11T12:40:33;25.80;1.00
7028;DHT22;3555;53.248;10.336;2022-09-11T12:43:26;25.60;99.90
7028;DHT22;3555;53.248;10.336;2022-09-11T12:45:54;25.20;1.00
7028;DHT22;3555;53.248;10.336;2022-09-11T12:48:23;25.30;1.00
7028;DHT22;3555;53.248;10.336;2022-09-11T12:50:53;25.40;1.00
7028;DHT22;3555;53.248;10.336;2022-09-11T12:53:24;25.60;99.90
7028;DHT22;3555;53.248;10.336;2022-09-11T12:55:59;25.70;1.00
7028;DHT22;3555;53.248;10.336;2022-09-11T12:58:30;26.10;1.00
7028;DHT22;3555;53.248;10.336;2022-09-11T13:01:02;26.20;1.00
7028;DHT22;3555;53.248;10.336;2022-09-11T13:03:30;26.40;1.00
7028;DHT22;3555;53.248;10.336;2022-09-11T13:06:00;26.60;1.00
7028;DHT22;3555;53.248;10.336;2022-09-11T13:08:32;26.60;1.00
7028;DHT22;3555;53.248;10.336;2022-09-11T13:11:33;26.50;99.90
7028;DHT22;3555;53.248;10.336;2022-09-11T13:14:01;26.50;99.90
7028;DHT22;3555;53.248;10.336;2022-09-11T13:16:28;26.70;1.00
7028;DHT22;3555;53.248;10.336;2022-09-11T13:19:04;26.60;1.00
7028;DHT22;3555;53.248;10.336;2022-09-11T13:21:36;26.50;1.00
7028;DHT22;3555;53.248;10.336;2022-09-11T13:24:23;26.60;1.00
7028;DHT22;3555;53.248;10.336;2022-09-11T13:26:51;26.70;1.00
7028;DHT22;3555;53.248;10.336;2022-09-11T13:29:20;26.70;1.00
7028;DHT22;3555;53.248;10.336;2022-09-11T13:31:49;27.00;1.00
7028;DHT22;3555;53.248;10.336;2022-09-11T13:34:17;27.10;1.00
7028;DHT22;3555;53.248;10.336;2022-09-11T13:36:46;27.10;1.00
7028;DHT22;3555;53.248;10.336;2022-09-11T13:39:16;27.20;99.90
7028;DHT22;3555;53.248;10.336;2022-09-11T13:41:46;27.10;1.00
7028;DHT22;3555;53.248;10.336;2022-09-11T13:44:29;26.80;1.00
7028;DHT22;3555;53.248;10.336;2022-09-11T13:46:58;26.60;1.00
7028;DHT22;3555;53.248;10.336;2022-09-11T13:49:31;26.60;1.00
7028;DHT22;3555;53.248;10.336;2022-09-11T13:51:59;26.40;99.90
7028;DHT22;3555;53.248;10.336;2022-09-11T13:54:29;26.40;99.90
7028;DHT22;3555;53.248;10.336;2022-09-11T13:57:17;26.40;99.90
7028;DHT22;3555;53.248;10.336;2022-09-11T13:59:47;26.20;1.00
7028;DHT22;3555;53.248;10.336;2022-09-11T14:05:09;26.10;99.90
7028;DHT22;3555;53.248;10.336;2022-09-11T14:07:43;25.90;98.40
7028;DHT22;3555;53.248;10.336;2022-09-11T14:10:18;25.80;99.90
7028;DHT22;3555;53.248;10.336;2022-09-11T14:12:51;25.80;99.90
7028;DHT22;3555;53.248;10.336;2022-09-11T14:15:23;25.60;99.90
7028;DHT22;3555;53.248;10.336;2022-09-11T14:17:53;25.60;99.90
7028;DHT22;3555;53.248;10.336;2022-09-11T14:20:21;25.50;99.90
7028;DHT22;3555;53.248;10.336;2022-09-11T14:22:52;25.70;1.00
7028;DHT22;3555;53.248;10.336;2022-09-11T14:25:21;25.80;99.90
7028;DHT22;3555;53.248;10.336;2022-09-11T14:27:49;25.90;99.90
7028;DHT22;3555;53.248;10.336;2022-09-11T14:30:31;26.10;99.90
7028;DHT22;3555;53.248;10.336;2022-09-11T14:36:02;26.40;99.90
7028;DHT22;3555;53.248;10.336;2022-09-11T14:38:30;26.30;94.20
7028;DHT22;3555;53.248;10.336;2022-09-11T14:40:59;26.50;99.90
7028;DHT22;3555;53.248;10.336;2022-09-11T14:43:30;26.60;99.90
7028;DHT22;3555;53.248;10.336;2022-09-11T14:45:58;26.60;2.60
7028;DHT22;3555;53.248;10.336;2022-09-11T14:48:26;26.70;99.90
7028;DHT22;3555;53.248;10.336;2022-09-11T14:50:53;26.70;1.00
7028;DHT22;3555;53.248;10.336;2022-09-11T14:53:27;26.60;1.00
7028;DHT22;3555;53.248;10.336;2022-09-11T14:55:56;26.60;1.00
7028;DHT22;3555;53.248;10.336;2022-09-11T14:58:23;26.60;1.00
7028;DHT22;3555;53.248;10.336;2022-09-11T15:00:51;26.60;49.10
7028;DHT22;3555;53.248;10.336;2022-09-11T15:03:19;26.40;1.00
7028;DHT22;3555;53.248;10.336;2022-09-11T15:05:48;26.40;32.10
7028;DHT22;3555;53.248;10.336;2022-09-11T15:08:17;26.40;99.90
7028;DHT22;3555;53.248;10.336;2022-09-11T15:10:44;26.20;1.00
7028;DHT22;3555;53.248;10.336;2022-09-11T15:13:13;26.10;99.90
7028;DHT22;3555;53.248;10.336;2022-09-11T15:15:40;25.90;99.90
7028;DHT22;3555;53.248;10.336;2022-09-11T15:18:08;25.90;96.50
7028;DHT22;3555;53.248;10.336;2022-09-11T15:20:35;25.90;99.90
7028;DHT22;3555;53.248;10.336;2022-09-11T15:23:02;25.80;99.90
7028;DHT22;3555;53.248;10.336;2022-09-11T15:25:29;25.80;1.00
7028;DHT22;3555;53.248;10.336;2022-09-11T15:27:57;25.80;99.90
7028;DHT22;3555;53.248;10.336;2022-09-11T15:30:24;25.80;99.90
7028;DHT22;3555;53.248;10.336;2022-09-11T15:32:52;25.80;99.90
7028;DHT22;3555;53.248;10.336;2022-09-11T15:35:21;25.80;99.90
7028;DHT22;3555;53.248;10.336;2022-09-11T15:37:48;25.80;91.30
7028;DHT22;3555;53.248;10.336;2022-09-11T15:40:15;25.80;99.90
7028;DHT22;3555;53.248;10.336;2022-09-11T15:42:42;25.80;99.90
7028;DHT22;3555;53.248;10.336;2022-09-11T15:45:09;25.80;99.90
7028;DHT22;3555;53.248;10.336;2022-09-11T15:47:38;25.60;1.00
7028;DHT22;3555;53.248;10.336;2022-09-11T15:50:05;25.60;99.90
7028;DHT22;3555;53.248;10.336;2022-09-11T15:52:34;25.50;99.90
7028;DHT22;3555;53.248;10.336;2022-09-11T15:55:01;25.30;99.90
7028;DHT22;3555;53.248;10.336;2022-09-11T15:57:28;25.30;1.00
7028;DHT22;3555;53.248;10.336;2022-09-11T15:59:55;25.20;99.90
7028;DHT22;3555;53.248;10.336;2022-09-11T16:02:22;25.20;99.90
7028;DHT22;3555;53.248;10.336;2022-09-11T16:04:49;25.10;1.00
7028;DHT22;3555;53.248;10.336;2022-09-11T16:07:16;25.00;1.00
7028;DHT22;3555;53.248;10.336;2022-09-11T16:09:44;24.90;1.00
7028;DHT22;3555;53.248;10.336;2022-09-11T16:12:11;24.80;1.00
7028;DHT22;3555;53.248;10.336;2022-09-11T16:14:38;24.80;1.00
7028;DHT22;3555;53.248;10.336;2022-09-11T16:17:06;24.70;1.00
7028;DHT22;3555;53.248;10.336;2022-09-11T16:22:08;24.70;95.10
7028;DHT22;3555;53.248;10.336;2022-09-11T16:24:35;24.60;1.00
7028;DHT22;3555;53.248;10.336;2022-09-11T16:27:05;24.60;1.00
7028;DHT22;3555;53.248;10.336;2022-09-11T16:29:33;24.60;62.10